Impacts METAR Board
IDs:

KBOS - Boston/Logan Intl, MA, US

Updated at: 2000 UTC 08 Feb 2023
Potential Impact None Slight Moderate High
Time 08/08Z 08/09Z 08/10Z 08/11Z 08/12Z 08/13Z 08/14Z 08/15Z 08/16Z 08/17Z 08/18Z 08/19Z 08/20Z
Temp36 37 37 39 41 42 43 43 44 47 47 47 48
Dewpt33 33 33 33 33 33 33 32 31 28 25 25 24
Altim30.02 30.01 30.02 30.02 30.03 30.05 30.07 30.09 30.11 30.11 30.09 30.08 30.10
VIS10 10 10 10 10 10 10 10 10 10 10 10 10
CIG75 60 60 60 -- 48 48 44 48 55 48 48 --
CoverOVCOVCOVCBKNFEWBKNBKNOVCBKNBKNBKNBKNFEW
FltCatVFRVFRVFRVFRVFRVFRVFRVFRVFRVFRVFRVFRVFR
WX--------------------------
WDir250240240260260260270290290290290270300
WSpd9 10 9 10 11 12 13 8 12 15 13 13 13
WGst-- -- -- 18 -- -- -- -- 19 19 22 19 --
Raw hourly METARs
KBOS 080754Z 25009KT 10SM FEW011 OVC075 02/01 A3002 RMK AO2 SLP163 T00220006
KBOS 080854Z 24010KT 10SM OVC060 03/01 A3001 RMK AO2 SLP163 T00280006 56007
KBOS 080954Z 24009KT 10SM OVC060 03/01 A3002 RMK AO2 SLP163 T00280006
KBOS 081054Z 26010G18KT 10SM BKN060 04/01 A3002 RMK AO2 SLP165 T00390006
KBOS 081154Z 26011KT 10SM FEW060 05/01 A3003 RMK AO2 SLP169 70004 T00500006 10056 20017 53006
KBOS 081254Z 26012KT 10SM BKN048 06/01 A3005 RMK AO2 SLP174 T00560006
KBOS 081354Z 27013KT 10SM BKN048 06/01 A3007 RMK AO2 SLP183 T00610006
KBOS 081454Z 29008KT 10SM OVC044 06/00 A3009 RMK AO2 SLP190 T00610000 53021
KBOS 081554Z 29012G19KT 10SM FEW040 BKN048 07/M01 A3011 RMK AO2 SLP196 T00671006
KBOS 081654Z 29015G19KT 10SM SCT041 BKN055 BKN080 08/M02 A3011 RMK AO2 PK WND 30026/1615 SLP195 T00831022
KBOS 081754Z 29013G22KT 10SM BKN048 08/M04 A3009 RMK AO2 SLP189 T00831039 10089 20050 50000
KBOS 081854Z 27013G19KT 10SM BKN048 08/M04 A3008 RMK AO2 SLP186 T00831039
KBOS 081954Z 30013KT 10SM FEW046 09/M04 A3010 RMK AO2 SLP193 T00891044



Page loaded:  20:32 UTC  |   12:32 PM Pacific  |   01:32 PM Mountain  |   02:32 PM Central  |   03:32 PM Eastern

 

ADVISORIES

FORECASTS

FORECASTS

OBSERVATIONS

USER TOOLS

ABOUT US